createdAt,value
2023-01-17T00:08:47.753Z,29.00
2023-01-17T00:19:12.223Z,38.30
2023-01-17T00:29:21.809Z,30.10
2023-01-17T00:39:28.537Z,25.90
2023-01-17T00:50:21.745Z,33.80
2023-01-17T01:01:08.066Z,24.00
2023-01-17T01:11:51.181Z,27.90
2023-01-17T01:23:15.568Z,17.10
2023-01-17T01:34:07.510Z,21.20
2023-01-17T01:44:51.402Z,22.70
2023-01-17T01:55:06.799Z,19.60
2023-01-17T02:05:43.885Z,19.50
2023-01-17T02:16:23.156Z,7.90
2023-01-17T02:26:52.684Z,5.40
2023-01-17T02:37:09.279Z,4.40
2023-01-17T02:47:46.994Z,4.30
2023-01-17T02:58:42.139Z,3.40
2023-01-17T03:08:57.166Z,3.50
2023-01-17T03:19:16.416Z,4.30
2023-01-17T03:29:40.814Z,4.80
2023-01-17T03:40:10.115Z,2.60
2023-01-17T03:50:14.364Z,4.20
2023-01-17T04:00:40.222Z,5.30
2023-01-17T04:11:07.317Z,4.30
2023-01-17T04:21:24.383Z,9.80
2023-01-17T04:31:31.226Z,6.30
2023-01-17T04:41:45.624Z,12.70
2023-01-17T04:51:52.783Z,4.90
2023-01-17T05:02:20.161Z,4.90
2023-01-17T05:12:41.268Z,4.60
2023-01-17T05:22:47.669Z,10.80
2023-01-17T05:33:02.819Z,6.20
2023-01-17T05:43:12.821Z,10.50
2023-01-17T05:53:20.599Z,12.10
2023-01-17T06:03:27.201Z,13.20
2023-01-17T06:13:38.952Z,10.50
2023-01-17T06:23:58.476Z,9.00
2023-01-17T06:34:05.933Z,7.00
2023-01-17T06:44:13.140Z,7.50
2023-01-17T06:54:20.470Z,8.60
2023-01-17T07:04:30.378Z,11.10
2023-01-17T07:14:45.017Z,11.30
2023-01-17T07:25:14.752Z,10.20
2023-01-17T07:35:42.285Z,12.20
2023-01-17T07:46:01.979Z,20.00
2023-01-17T07:56:29.467Z,18.70
2023-01-17T08:07:25.960Z,22.00
2023-01-17T08:18:01.367Z,20.90
2023-01-17T08:28:14.188Z,19.10
2023-01-17T08:39:08.726Z,22.90
2023-01-17T08:49:53.465Z,28.00
2023-01-17T09:00:28.847Z,24.60
2023-01-17T09:11:09.818Z,23.70
2023-01-17T09:21:37.861Z,23.50
2023-01-17T09:31:58.231Z,20.40
2023-01-17T09:42:05.128Z,19.30
2023-01-17T09:52:42.286Z,18.30
2023-01-17T10:03:46.637Z,15.40
2023-01-17T10:14:21.986Z,8.80
2023-01-17T10:25:09.149Z,10.40
2023-01-17T10:35:48.437Z,9.30
2023-01-17T10:46:41.751Z,16.40
2023-01-17T10:57:19.359Z,8.40
2023-01-17T11:08:10.090Z,7.90
2023-01-17T11:19:15.257Z,6.80
2023-01-17T11:30:37.075Z,5.30
2023-01-17T11:41:20.998Z,12.20
2023-01-17T11:51:56.831Z,5.70
2023-01-17T12:03:16.386Z,6.30
2023-01-17T12:14:01.867Z,6.70
2023-01-17T12:24:17.169Z,10.60
2023-01-17T12:34:47.554Z,7.20
2023-01-17T12:45:20.550Z,5.20
2023-01-17T12:55:41.450Z,5.10
2023-01-17T13:05:53.791Z,6.00
2023-01-17T13:16:03.700Z,6.40
2023-01-17T13:26:21.065Z,5.50
2023-01-17T13:36:42.730Z,5.50
2023-01-17T13:47:26.622Z,5.40
2023-01-17T13:57:42.378Z,7.90
2023-01-17T14:08:13.466Z,6.20
2023-01-17T14:18:37.296Z,5.60
2023-01-17T14:28:56.261Z,7.00
2023-01-17T14:39:00.582Z,11.40
2023-01-17T14:49:25.721Z,4.20
2023-01-17T14:59:29.785Z,8.70
2023-01-17T15:09:37.436Z,7.70
2023-01-17T15:19:44.382Z,5.80
2023-01-17T15:29:53.167Z,21.00
2023-01-17T15:40:18.322Z,51.00
2023-01-17T15:50:32.340Z,43.70
2023-01-17T16:00:45.521Z,45.80
2023-01-17T16:10:55.401Z,61.80
2023-01-17T16:21:02.408Z,57.40
2023-01-17T16:31:08.552Z,99.50
2023-01-17T16:41:13.492Z,94.50
2023-01-17T16:51:17.649Z,86.70
2023-01-17T17:01:23.348Z,96.50
2023-01-17T17:11:27.745Z,95.40
2023-01-17T17:21:36.326Z,76.30
2023-01-17T17:31:46.603Z,108.40
2023-01-17T17:41:53.987Z,86.00
2023-01-17T17:52:21.582Z,92.50
2023-01-17T18:02:27.344Z,98.40
2023-01-17T18:12:32.382Z,100.90
2023-01-17T18:22:37.653Z,97.10
2023-01-17T18:32:52.326Z,102.90
2023-01-17T18:42:59.356Z,124.50
2023-01-17T18:53:07.145Z,129.50
2023-01-17T19:03:19.866Z,104.60
2023-01-17T19:13:28.589Z,259.80
2023-01-17T19:23:37.764Z,128.00
2023-01-17T19:33:45.477Z,137.80
2023-01-17T19:44:05.823Z,102.10
2023-01-17T19:54:11.562Z,117.10
2023-01-17T20:04:19.557Z,112.70
2023-01-17T20:14:28.015Z,119.90
2023-01-17T20:24:34.007Z,120.10
2023-01-17T20:34:39.031Z,141.50
2023-01-17T20:44:44.208Z,143.60
2023-01-17T20:54:52.644Z,145.10
2023-01-17T21:04:59.088Z,138.20
2023-01-17T21:15:03.128Z,153.10
2023-01-17T21:25:08.076Z,134.70
2023-01-17T21:35:12.527Z,127.90
2023-01-17T21:45:16.557Z,130.70
2023-01-17T21:55:39.436Z,99.60
2023-01-17T22:05:43.437Z,100.80
2023-01-17T22:15:58.992Z,84.40
2023-01-17T22:26:07.655Z,89.30
2023-01-17T22:36:16.438Z,93.30
2023-01-17T22:46:26.293Z,88.60
2023-01-17T22:56:32.833Z,100.60
2023-01-17T23:06:39.487Z,103.70
2023-01-17T23:17:08.621Z,97.60
2023-01-17T23:27:50.543Z,59.10
2023-01-17T23:38:13.409Z,21.30
2023-01-17T23:48:17.521Z,10.10
2023-01-17T23:58:40.612Z,5.00
